aviador You're here:

EYVI Decoded Metar

VILNIUS INTL in LITHUANIA
Report Time2017-06-23 22:20:00
UTC Time2017-06-23 22:32:39
Flight Rules mvfr MVFR
Wind180° at 02 kt
W.Decomp.*RWY 20: 1.8 kt HW 0.9 kt LCW
W.Rank180° ranks 3
Current wind is below 180° avg. (6.8)
Visibility7000 m
Phenomena:Shallow Fog
Clouds:N/A
Expected CloudBase > 400 ft AGL from Temp-Dew spread
CeilingNone
Temp14°C (ISA 0)
Dew Point13°C (94% RH)
QNH1007 hPa
Density Alt1,086 ft
Elevation646 ft
Report Wrong Elevation
Raw Report
EYVI 232220Z 18002KT 7000 NSC 14/13 Q1007 TEMPO 3000 MIFG BR=

Extra information for EYVI:More info

Metar Taf Metar & Taf Last 4 Metars F.Rules Stats Wind Profile Meteogram Temp Stats Airport Information Weather charts Add Link Nearby VenuesMetar ALERT Operation Metar Decoded Social comments